Fort Stockton Pecos County Airport
KFST : now visible

Airfield :











YOU CAN JOIN US ON...

 
LOGIN :

Register | Disclaimer

   EN    FR    IT 

 









Legend :    VFR   Marginal VFR   IFR   Intensive IFR   Very Intensive IFR
Visi :
Ceiling :
>= 8 km
>= 3000ft
5 to 8 km
1000 to 3000 ft
1500m to 5 km
500 to 1000 ft
800 to 1500m
200 to 500 ft
< 800m
< 200 ft
Symbols :   Thunderstorms  Fog  Heavy snow  Heavy precipitations  Wind > 20 kt






- Airport Elevation : 3011 ft


KFST - Fort Stockton Pecos County

CURRENT METAR :
  • 272253Z AUTO 33012KT 1 3/4SM -FZRA BR BKN006 OVC012 M01/M01 A3009 RMK AO2 UPE24B45E53FZRAB24E32B53SNB32E45 SLP191 P0000 I1001 T10061011

EXPIRED METARs :
  • 272239Z AUTO 33014KT 1 1/4SM -SN BR BKN008 OVC012 M01/M02 A3008 RMK AO2 UPE24FZRAB24E32SNB32 P0000 I1001 T10111017
  • 272232Z AUTO 34013KT 2SM -SN BR BKN008 OVC014 M01/M02 A3008 RMK AO2 UPE24FZRAB24E32SNB32 P0000 I1001 T10061017
  • 272223Z AUTO 34011KT 4SM UP BR BKN008 OVC012 M01/M02 A3007 RMK AO2 CIG 005V011 P0000 T10061017
  • 272153Z AUTO 01010KT 8SM UP BKN010 OVC017 M01/M02 A3006 RMK AO2 UPB44SNB2054E15 CIG 007V015 SLP181 P0000 T10061017
  • 272132Z AUTO 36011KT 10SM BKN012 OVC019 M01/M02 A3006 RMK AO2 SNB2054E15 P0000 T10061017
  • 272113Z AUTO 35010KT 5SM -SN BR FEW007 SCT011 OVC020 M01/M02 A3006 RMK AO2 SNB2054 P0000 T10061017
  • 272100Z AUTO 01011KT 2 1/2SM -SN BR SCT007 BKN012 OVC022 M01/M02 A3006 RMK AO2 VIS 3/4V5 SNB2054 P0000 T10061017
  • 272053Z AUTO 35011KT 6SM BR BKN007 BKN014 OVC022 M01/M02 A3006 RMK AO2 SNE1958B29E41 CIG 005V010 SLP181 P0000 60000 T10061017 56018
  • 272038Z AUTO 36010KT 4SM -SN BR SCT007 BKN014 OVC023 M01/M02 A3007 RMK AO2 SNE1958B29 P0000 T10061017
  • 272021Z AUTO 01008KT 10SM FEW008 BKN015 OVC023 M01/M02 A3007 RMK AO2 SNE1958 P0000 T10061022
  • 272000Z AUTO 01007KT 9SM BKN008 OVC015 M01/M02 A3009 RMK AO2 SNE1958 P0000 T10061022
  • 271953Z AUTO 36008KT 2 1/2SM -SN BR BKN008 BKN013 OVC020 M01/M02 A3009 RMK AO2 UPB18E19B34E38SNB19E34B45 SLP189 P0000 T10061022

TAF KFST
Valid from the 27 at 18:00 until the 28 at 18:00 UTC


271747Z 2718/2818 36010KT 3SM BR OVC007
TEMPO 2718/2722 2SM -FZRA BR
FM280400 01010KT P6SM OVC015
KZAB FIR / North America



MET'MAP, your aeronautical weather chart ! - Copyright ORBIFLY December 2007 - Disclaimer

ORBIFLY MET'MAP TEAM :

Programming & Development : Alexandra Zaïnal
Concept & original design : Baudouin d'Aumeries
Assistance for programming : Marc-Olivier Méhu
Technical & hardware support : Manuel Goepfert

Contact : metmap@orbifly.com




SOURCES & CREDITS :

   NOAA       Earth
Advisory